Crystal Bay — V7BQ6 — position and weather

sailwx.info

Track history (hours):
 
Tides and Currents Weather Stations Pressure Air Temp Water Temp Dewpoint Dewpoint Depression Visibility Wind Speed Wind Dir Waves Ship Positions

Crystal Bay

Last reported at 2018-Jul-21 15:31 UTC. Time now 2018-Jul-21 15:32 UTC.
Position N 33°12' W 117°57'.

Length 183 m; draft 8.4 m.

Type: Tanker. MMSI: 538005187.

Date/timePositionNaut miles runAvg speedWind from/ knotsBaromVisibWave heightAir tempDewpointWater temp
2018-Jul-21 15:31N 33°12' W 117°57'5 9.5
2018-Jul-21 15:01N 33°09' W 117°54'0 0.5
2018-Jul-21 14:30N 33°08' W 117°54'4 3.8
2018-Jul-21 13:31N 33°05' W 117°56'510.4
2018-Jul-21 13:00N 33°00' W 117°53'611.4
2018-Jul-21 12:31N 32°56' W 117°50'611.6
2018-Jul-21 12:01N 32°51' W 117°46'611.6
2018-Jul-21 11:30N 32°46' W 117°42'611.5
2018-Jul-21 11:00N 32°40' W 117°40'611.5
2018-Jul-21 10:30N 32°35' W 117°39'611.9
2018-Jul-21 10:00N 32°29' W 117°39'611.8
2018-Jul-21 09:29N 32°22' W 117°38'611.9
2018-Jul-21 09:00N 32°17' W 117°37'611.8
2018-Jul-21 08:31N 32°11' W 117°36'611.7
2018-Jul-21 08:00N 32°05' W 117°36'611.9
2018-Jul-21 07:31N 31°59' W 117°35'611.8
2018-Jul-21 07:00N 31°53' W 117°35'611.5
2018-Jul-21 06:30N 31°48' W 117°34'510.7
2018-Jul-21 06:00N 31°42' W 117°33'510.7
2018-Jul-21 05:30N 31°37' W 117°33'510.5
2018-Jul-21 05:00N 31°32' W 117°35'511.0
2018-Jul-21 04:30N 31°27' W 117°37'611.1
2018-Jul-21 04:00N 31°22' W 117°40'611.1
2018-Jul-21 03:30N 31°17' W 117°43'611.0
2018-Jul-21 03:00N 31°12' W 117°46'510.8
2018-Jul-21 02:30N 31°07' W 117°48'510.7
2018-Jul-21 02:00N 31°02' W 117°51'510.6
2018-Jul-21 01:31N 30°57' W 117°53'610.9
2018-Jul-21 01:00N 30°52' W 117°56'611.7
2018-Jul-21 00:30N 30°47' W 117°59'711.4
2018-Jul-20 23:55N 30°41' W 118°02'811.7
2018-Jul-20 23:14N 30°34' W 118°06'311.8
2018-Jul-20 22:57N 30°31' W 118°07'511.9
2018-Jul-20 22:30N 30°26' W 118°10'612.0
2018-Jul-20 22:00N 30°20' W 118°13'611.8
2018-Jul-20 21:29N 30°15' W 118°16'1611.9
2018-Jul-20 20:11N 30°00' W 118°23'212.2
2018-Jul-20 20:00N 29°58' W 118°24'2811.9
2018-Jul-20 17:38N 29°33' W 118°38'5411.9
2018-Jul-20 13:05N 28°43' W 119°04'1211.8
2018-Jul-20 12:05N 28°33' W 119°10'311.7
2018-Jul-20 11:50N 28°30' W 119°11'511.7
2018-Jul-20 11:27N 28°26' W 119°13'811.8
2018-Jul-20 10:48N 28°19' W 119°17'411.8
2018-Jul-20 10:30N 28°16' W 119°18'9211.6
2018-Jul-20 02:34N 26°52' W 120°02'111.7
2018-Jul-20 02:30N 26°52' W 120°02'611.5
2018-Jul-20 02:01N 26°47' W 120°05'1111.5
2018-Jul-20 01:04N 26°37' W 120°10'  
Track history (hours):
 
Tides and Currents Weather Stations Pressure Air Temp Water Temp Dewpoint Dewpoint Depression Visibility Wind Speed Wind Dir Waves Ship Positions

Crystal Bay

Last reported at 2018-Jul-21 15:31 UTC. Time now 2018-Jul-21 15:32 UTC.
Position N 33°12' W 117°57'.

Length 183 m; draft 8.4 m.

Type: Tanker. MMSI: 538005187.

Date/timePositionNaut miles runAvg speedWind from/ knotsBaromVisibWave heightAir tempDewpointWater temp
2018-Jul-21 15:31N 33°12' W 117°57'5 9.5
2018-Jul-21 15:01N 33°09' W 117°54'0 0.5
2018-Jul-21 14:30N 33°08' W 117°54'4 3.8
2018-Jul-21 13:31N 33°05' W 117°56'510.4
2018-Jul-21 13:00N 33°00' W 117°53'611.4
2018-Jul-21 12:31N 32°56' W 117°50'611.6
2018-Jul-21 12:01N 32°51' W 117°46'611.6
2018-Jul-21 11:30N 32°46' W 117°42'611.5
2018-Jul-21 11:00N 32°40' W 117°40'611.5
2018-Jul-21 10:30N 32°35' W 117°39'611.9
2018-Jul-21 10:00N 32°29' W 117°39'611.8
2018-Jul-21 09:29N 32°22' W 117°38'611.9
2018-Jul-21 09:00N 32°17' W 117°37'611.8
2018-Jul-21 08:31N 32°11' W 117°36'611.7
2018-Jul-21 08:00N 32°05' W 117°36'611.9
2018-Jul-21 07:31N 31°59' W 117°35'611.8
2018-Jul-21 07:00N 31°53' W 117°35'611.5
2018-Jul-21 06:30N 31°48' W 117°34'510.7
2018-Jul-21 06:00N 31°42' W 117°33'510.7
2018-Jul-21 05:30N 31°37' W 117°33'510.5
2018-Jul-21 05:00N 31°32' W 117°35'511.0
2018-Jul-21 04:30N 31°27' W 117°37'611.1
2018-Jul-21 04:00N 31°22' W 117°40'611.1
2018-Jul-21 03:30N 31°17' W 117°43'611.0
2018-Jul-21 03:00N 31°12' W 117°46'510.8
2018-Jul-21 02:30N 31°07' W 117°48'510.7
2018-Jul-21 02:00N 31°02' W 117°51'510.6
2018-Jul-21 01:31N 30°57' W 117°53'610.9
2018-Jul-21 01:00N 30°52' W 117°56'611.7
2018-Jul-21 00:30N 30°47' W 117°59'711.4
2018-Jul-20 23:55N 30°41' W 118°02'811.7
2018-Jul-20 23:14N 30°34' W 118°06'311.8
2018-Jul-20 22:57N 30°31' W 118°07'511.9
2018-Jul-20 22:30N 30°26' W 118°10'612.0
2018-Jul-20 22:00N 30°20' W 118°13'611.8
2018-Jul-20 21:29N 30°15' W 118°16'1611.9
2018-Jul-20 20:11N 30°00' W 118°23'212.2
2018-Jul-20 20:00N 29°58' W 118°24'2811.9
2018-Jul-20 17:38N 29°33' W 118°38'5411.9
2018-Jul-20 13:05N 28°43' W 119°04'1211.8
2018-Jul-20 12:05N 28°33' W 119°10'311.7
2018-Jul-20 11:50N 28°30' W 119°11'511.7
2018-Jul-20 11:27N 28°26' W 119°13'811.8
2018-Jul-20 10:48N 28°19' W 119°17'411.8
2018-Jul-20 10:30N 28°16' W 119°18'9211.6
2018-Jul-20 02:34N 26°52' W 120°02'111.7
2018-Jul-20 02:30N 26°52' W 120°02'611.5
2018-Jul-20 02:01N 26°47' W 120°05'1111.5
2018-Jul-20 01:04N 26°37' W 120°10'  

Dump ship's entire track history